Time;durP1;ratioP1;P1;durP2;ratioP2;P2;SDS_P1;SDS_P2;PMS_P1;PMS_P2;Temp;Humidity;BMP_temperature;BMP_pressure;BME280_temperature;BME280_humidity;BME280_pressure;Samples;Min_cycle;Max_cycle;Signal;HPM_P1;HPM_P2
2023/07/19 00:00:38;;;;;;;3.38;3.08;;;16.60;99.90;;;;;;5090575;28;20382;-85
2023/07/19 00:03:04;;;;;;;3.50;3.20;;;16.80;99.90;;;;;;5092360;28;20448;-86
2023/07/19 00:05:30;;;;;;;5.75;4.03;;;16.40;99.90;;;;;;5101661;28;20035;-85
2023/07/19 00:07:56;;;;;;;4.65;4.05;;;16.70;99.90;;;;;;5105547;28;20031;-86
2023/07/19 00:10:22;;;;;;;5.68;4.15;;;16.80;99.90;;;;;;5081309;28;20127;-86
2023/07/19 00:12:47;;;;;;;7.55;3.60;;;16.60;99.90;;;;;;5102956;28;20124;-86
2023/07/19 00:15:13;;;;;;;4.10;3.70;;;16.40;99.90;;;;;;5075762;28;20123;-87
2023/07/19 00:17:38;;;;;;;8.45;4.60;;;16.70;99.90;;;;;;5079929;28;20048;-86
2023/07/19 00:20:05;;;;;;;5.68;4.57;;;16.30;99.90;;;;;;5089351;28;20073;-85
2023/07/19 00:22:32;;;;;;;4.93;4.28;;;16.30;99.90;;;;;;5096535;28;20597;-86
2023/07/19 00:24:57;;;;;;;5.85;4.22;;;16.20;99.90;;;;;;5091668;28;20046;-85
2023/07/19 00:27:24;;;;;;;5.07;4.13;;;16.20;99.90;;;;;;5090617;28;20042;-86
2023/07/19 00:29:50;;;;;;;5.78;4.03;;;16.20;99.90;;;;;;5073214;28;20922;-86
2023/07/19 00:32:16;;;;;;;6.57;4.22;;;16.20;99.90;;;;;;5080191;28;20126;-88
2023/07/19 00:34:41;;;;;;;6.70;4.50;;;16.20;99.90;;;;;;5106017;28;20043;-85
2023/07/19 00:37:07;;;;;;;5.00;4.05;;;16.20;99.90;;;;;;5083795;28;20131;-87
2023/07/19 00:39:33;;;;;;;5.90;4.10;;;16.20;99.90;;;;;;5110243;28;20055;-86
2023/07/19 00:41:59;;;;;;;6.40;4.03;;;16.20;99.90;;;;;;5098796;28;20044;-87
2023/07/19 00:44:25;;;;;;;6.35;4.00;;;16.00;99.90;;;;;;5101448;28;20048;-88
2023/07/19 00:46:53;;;;;;;7.57;4.00;;;16.20;99.90;;;;;;5103467;28;20108;-86
2023/07/19 00:49:20;;;;;;;5.70;4.45;;;16.30;99.90;;;;;;5089558;28;20048;-86
2023/07/19 00:51:46;;;;;;;4.47;4.07;;;16.50;99.90;;;;;;5089828;28;20056;-87
2023/07/19 00:54:12;;;;;;;4.57;3.85;;;16.20;99.90;;;;;;5082790;28;20067;-85
2023/07/19 00:56:40;;;;;;;7.88;4.45;;;16.20;99.90;;;;;;5109322;28;20066;-86
2023/07/19 00:59:06;;;;;;;4.95;4.13;;;16.20;99.90;;;;;;5110832;28;20047;-87
2023/07/19 01:01:34;;;;;;;4.88;4.35;;;16.20;99.90;;;;;;5108818;28;20188;-86
2023/07/19 01:04:00;;;;;;;4.70;4.25;;;16.20;99.90;;;;;;5092347;28;20051;-85
2023/07/19 01:06:25;;;;;;;5.25;4.32;;;16.20;99.90;;;;;;5085560;28;20040;-87
2023/07/19 01:08:51;;;;;;;6.55;3.97;;;16.00;99.90;;;;;;5074330;28;20047;-87
2023/07/19 01:11:17;;;;;;;7.55;4.35;;;16.20;99.90;;;;;;5090361;28;20036;-86
2023/07/19 01:13:57;;;;;;;8.00;4.20;;;16.20;99.90;;;;;;5101743;28;20079;-86
2023/07/19 01:16:23;;;;;;;4.07;3.75;;;16.20;99.90;;;;;;5073311;28;20052;-87
2023/07/19 01:18:49;;;;;;;6.60;4.40;;;15.90;99.90;;;;;;5119189;27;20044;-86
2023/07/19 01:21:15;;;;;;;5.47;4.03;;;16.20;99.90;;;;;;5088868;28;20032;-86
2023/07/19 01:23:41;;;;;;;5.47;4.20;;;16.20;99.90;;;;;;5072283;28;20047;-88
2023/07/19 01:26:07;;;;;;;6.30;4.10;;;16.50;99.90;;;;;;5073204;28;20116;-87
2023/07/19 01:28:32;;;;;;;7.78;4.18;;;16.20;99.90;;;;;;5072000;28;20377;-88
2023/07/19 01:31:05;;;;;;;6.05;4.43;;;16.30;99.90;;;;;;5100747;28;20043;-87
2023/07/19 01:33:31;;;;;;;5.85;4.28;;;16.20;99.90;;;;;;5106075;28;20044;-85
2023/07/19 01:35:56;;;;;;;5.07;3.97;;;16.20;99.90;;;;;;5088045;28;20050;-86
2023/07/19 01:38:22;;;;;;;6.28;4.40;;;16.20;99.90;;;;;;5076726;28;20039;-86
2023/07/19 01:40:47;;;;;;;5.47;4.20;;;16.20;99.90;;;;;;5106825;28;20050;-87
2023/07/19 01:43:13;;;;;;;5.10;4.35;;;16.60;99.90;;;;;;5108543;28;20122;-86
2023/07/19 01:45:39;;;;;;;5.53;4.20;;;16.20;99.90;;;;;;5106528;28;20039;-86
2023/07/19 01:48:05;;;;;;;5.00;4.20;;;16.20;99.90;;;;;;5109238;28;20493;-87
2023/07/19 01:50:31;;;;;;;7.63;4.55;;;16.20;99.90;;;;;;5081363;28;20503;-85
2023/07/19 01:52:57;;;;;;;5.93;4.20;;;16.20;99.90;;;;;;5088955;28;20048;-87
2023/07/19 01:55:23;;;;;;;6.93;4.78;;;16.20;99.90;;;;;;5088710;28;20174;-85
2023/07/19 01:57:48;;;;;;;5.78;4.40;;;16.10;99.90;;;;;;5088286;28;20143;-85
2023/07/19 02:00:14;;;;;;;5.28;4.40;;;16.30;99.90;;;;;;5100044;28;20418;-86
2023/07/19 02:02:40;;;;;;;7.95;5.05;;;16.20;99.90;;;;;;5073134;28;20097;-86
2023/07/19 02:05:06;;;;;;;6.53;4.80;;;16.10;99.90;;;;;;5088156;28;20044;-86
2023/07/19 02:07:32;;;;;;;4.65;4.25;;;16.10;99.90;;;;;;5074236;28;20054;-86
2023/07/19 02:09:57;;;;;;;5.13;4.38;;;16.10;99.90;;;;;;5107749;28;20047;-86
2023/07/19 02:12:23;;;;;;;9.07;4.60;;;16.10;99.90;;;;;;5105230;28;20362;-86
2023/07/19 02:14:49;;;;;;;6.80;4.30;;;16.10;99.90;;;;;;5088443;28;20040;-85
2023/07/19 02:17:14;;;;;;;6.45;4.80;;;16.10;99.90;;;;;;5098554;28;20050;-85
2023/07/19 02:19:40;;;;;;;6.00;4.38;;;16.00;99.90;;;;;;5082616;28;20047;-86
2023/07/19 02:22:06;;;;;;;5.50;4.40;;;16.10;99.90;;;;;;5071628;28;20113;-86
2023/07/19 02:24:31;;;;;;;6.55;4.55;;;16.10;99.90;;;;;;5087141;28;20048;-86
2023/07/19 02:26:57;;;;;;;5.53;4.47;;;16.10;99.90;;;;;;5088593;28;20117;-86
2023/07/19 02:29:22;;;;;;;6.40;4.50;;;16.30;99.90;;;;;;5085652;28;20035;-86
2023/07/19 02:31:51;;;;;;;5.00;4.40;;;16.20;99.90;;;;;;5109019;28;20035;-85
2023/07/19 02:34:18;;;;;;;6.57;4.82;;;16.20;99.90;;;;;;5094033;28;20040;-87
2023/07/19 02:36:45;;;;;;;8.18;4.72;;;16.10;99.90;;;;;;5088584;28;20108;-88
2023/07/19 02:39:10;;;;;;;6.32;5.03;;;16.30;99.90;;;;;;5090526;28;20520;-86
2023/07/19 02:41:36;;;;;;;5.28;4.63;;;16.00;99.90;;;;;;5092815;28;20051;-86
2023/07/19 02:44:01;;;;;;;10.05;4.75;;;16.00;99.90;;;;;;5088296;28;20036;-85
2023/07/19 02:46:29;;;;;;;5.20;4.70;;;16.20;99.90;;;;;;5085256;28;20075;-86
2023/07/19 02:48:56;;;;;;;5.75;5.18;;;16.10;99.90;;;;;;5098821;28;20138;-87
2023/07/19 02:51:21;;;;;;;7.15;4.72;;;16.10;99.90;;;;;;5093619;28;20094;-86
2023/07/19 02:53:48;;;;;;;5.97;4.85;;;16.00;99.90;;;;;;5072163;28;20073;-86
2023/07/19 02:56:14;;;;;;;6.50;5.00;;;16.00;99.90;;;;;;5098883;28;20093;-86
2023/07/19 02:58:39;;;;;;;5.50;5.00;;;16.00;99.90;;;;;;5087627;28;20487;-86
2023/07/19 03:01:05;;;;;;;8.13;5.38;;;16.00;99.90;;;;;;5081529;28;20047;-86
2023/07/19 03:03:30;;;;;;;8.65;5.05;;;16.00;99.90;;;;;;5107809;28;20499;-87
2023/07/19 03:05:56;;;;;;;6.32;5.03;;;16.00;99.90;;;;;;5098064;28;20589;-86
2023/07/19 03:08:22;;;;;;;7.15;5.60;;;15.90;99.90;;;;;;5087174;28;20564;-86
2023/07/19 03:10:53;;;;;;;7.00;5.20;;;15.90;99.90;;;;;;5105883;28;20424;-87
2023/07/19 03:13:19;;;;;;;6.72;5.63;;;15.90;99.90;;;;;;5102655;28;20052;-86
2023/07/19 03:15:46;;;;;;;6.30;5.70;;;15.90;99.90;;;;;;5108263;28;20043;-85
2023/07/19 03:18:12;;;;;;;6.60;5.97;;;15.90;99.90;;;;;;5091090;28;20089;-85
2023/07/19 03:20:38;;;;;;;7.60;5.65;;;15.90;99.90;;;;;;5088028;28;20047;-87
2023/07/19 03:23:04;;;;;;;7.95;5.70;;;15.90;99.90;;;;;;5088501;28;20044;-85
2023/07/19 03:25:30;;;;;;;7.60;5.95;;;15.90;99.90;;;;;;5108074;28;20044;-85
2023/07/19 03:27:56;;;;;;;9.55;5.75;;;15.90;99.90;;;;;;5107185;28;20486;-86
2023/07/19 03:30:22;;;;;;;6.30;5.68;;;15.90;99.90;;;;;;5095280;28;20402;-86
2023/07/19 03:32:47;;;;;;;8.25;6.10;;;15.90;99.90;;;;;;5096639;28;20048;-86
2023/07/19 03:35:13;;;;;;;8.55;5.90;;;16.20;99.90;;;;;;5087337;28;20044;-86
2023/07/19 03:37:44;;;;;;;10.07;6.20;;;15.90;99.90;;;;;;5087052;28;20028;-86
2023/07/19 03:40:10;;;;;;;7.35;5.88;;;15.90;99.90;;;;;;5087246;28;20040;-85
2023/07/19 03:42:36;;;;;;;8.07;6.10;;;15.90;99.90;;;;;;5088013;28;20122;-86
2023/07/19 03:45:03;;;;;;;6.60;5.95;;;15.80;99.90;;;;;;5086964;28;20047;-85
2023/07/19 03:47:28;;;;;;;8.02;6.60;;;15.60;99.90;;;;;;5069276;28;20044;-86
2023/07/19 03:49:54;;;;;;;8.23;5.97;;;15.90;99.90;;;;;;5087197;28;20050;-86
2023/07/19 03:52:19;;;;;;;8.77;6.20;;;16.00;99.90;;;;;;5086424;28;20048;-87
2023/07/19 03:54:45;;;;;;;6.57;5.85;;;16.20;99.90;;;;;;5102587;28;20413;-85
2023/07/19 03:57:11;;;;;;;7.68;6.18;;;15.90;99.90;;;;;;5086972;28;20048;-86
2023/07/19 03:59:36;;;;;;;8.32;6.72;;;15.90;99.90;;;;;;5085985;28;20051;-86
2023/07/19 04:02:02;;;;;;;8.77;7.07;;;15.90;99.90;;;;;;5085376;28;20115;-85
2023/07/19 04:04:29;;;;;;;12.70;6.55;;;15.80;99.90;;;;;;5068699;28;20129;-86
2023/07/19 04:06:55;;;;;;;7.70;6.90;;;16.20;99.90;;;;;;5089487;28;20654;-85
2023/07/19 04:09:21;;;;;;;11.35;7.20;;;15.80;99.90;;;;;;5092288;28;20427;-85
2023/07/19 04:11:47;;;;;;;8.55;7.47;;;15.80;99.90;;;;;;5086194;28;20232;-85
2023/07/19 04:14:12;;;;;;;8.27;7.47;;;16.10;99.90;;;;;;5069145;28;20482;-85
2023/07/19 04:16:38;;;;;;;7.72;6.72;;;15.90;99.90;;;;;;5085595;28;20154;-85
2023/07/19 04:19:03;;;;;;;10.45;8.10;;;15.80;99.90;;;;;;5103050;28;20051;-85
2023/07/19 04:21:29;;;;;;;10.02;8.05;;;15.90;99.90;;;;;;5068066;28;20398;-85
2023/07/19 04:23:55;;;;;;;9.57;8.10;;;15.90;99.90;;;;;;5087452;28;20050;-86
2023/07/19 04:26:21;;;;;;;9.20;8.20;;;15.90;99.90;;;;;;5093843;28;20501;-85
2023/07/19 04:28:47;;;;;;;10.23;7.95;;;16.00;99.90;;;;;;5108920;28;20071;-87
2023/07/19 04:31:13;;;;;;;9.77;8.45;;;16.20;99.90;;;;;;5104771;28;20051;-86
2023/07/19 04:33:39;;;;;;;9.27;7.95;;;16.00;99.90;;;;;;5072477;28;20409;-85
2023/07/19 04:36:15;;;;;;;10.95;9.10;;;16.00;99.90;;;;;;5090961;28;20063;-86
2023/07/19 04:38:41;;;;;;;9.98;8.75;;;16.00;99.90;;;;;;5072828;28;20521;-86
2023/07/19 04:41:08;;;;;;;10.48;9.02;;;16.50;99.90;;;;;;5089649;28;20055;-87
2023/07/19 04:43:34;;;;;;;10.85;9.20;;;16.10;99.90;;;;;;5071525;28;20088;-86
2023/07/19 04:46:00;;;;;;;11.10;8.82;;;16.10;99.90;;;;;;5088473;28;20071;-85
2023/07/19 04:48:25;;;;;;;10.70;9.32;;;16.20;99.90;;;;;;5093094;28;20481;-85
2023/07/19 04:50:56;;;;;;;12.57;8.82;;;16.20;99.90;;;;;;5072098;28;20051;-86
2023/07/19 04:53:21;;;;;;;10.75;8.55;;;16.30;99.90;;;;;;5088086;28;20417;-86
2023/07/19 04:55:50;;;;;;;10.45;8.40;;;16.30;99.90;;;;;;5071225;28;20040;-86
2023/07/19 04:58:16;;;;;;;11.15;8.73;;;16.40;99.90;;;;;;5074587;28;20040;-86
2023/07/19 05:00:41;;;;;;;8.88;7.97;;;16.40;99.90;;;;;;5079756;28;20047;-86
2023/07/19 05:03:07;;;;;;;9.93;7.90;;;16.40;99.90;;;;;;5088673;28;20040;-87
2023/07/19 05:05:33;;;;;;;8.70;7.90;;;16.40;99.90;;;;;;5088019;28;20236;-84
2023/07/19 05:07:59;;;;;;;10.38;7.75;;;16.50;99.90;;;;;;5089742;28;21964;-87
2023/07/19 05:10:25;;;;;;;8.27;7.38;;;15.10;99.90;;;;;;5094447;28;20043;-86
2023/07/19 05:12:52;;;;;;;8.00;7.18;;;17.50;99.90;;;;;;5090697;28;20044;-86
2023/07/19 05:15:18;;;;;;;8.65;6.57;;;16.50;99.90;;;;;;5111455;27;20123;-85
2023/07/19 05:17:46;;;;;;;7.88;7.07;;;16.50;99.90;;;;;;5089165;28;20040;-88
2023/07/19 05:20:12;;;;;;;8.65;6.57;;;16.80;99.90;;;;;;5096110;28;20047;-85
2023/07/19 05:22:38;;;;;;;8.70;6.35;;;17.10;99.90;;;;;;5103173;28;20043;-88
2023/07/19 05:25:04;;;;;;;11.02;6.90;;;16.60;99.90;;;;;;5080296;28;20036;-87
2023/07/19 05:27:30;;;;;;;10.18;6.95;;;16.50;99.90;;;;;;5099763;27;20036;-86
2023/07/19 05:29:55;;;;;;;10.20;7.05;;;16.50;99.90;;;;;;5073918;28;20047;-88
2023/07/19 05:32:21;;;;;;;8.48;6.38;;;16.50;99.90;;;;;;5092220;28;20040;-87
2023/07/19 05:34:47;;;;;;;14.02;7.40;;;16.50;99.90;;;;;;5088389;28;20036;-87
2023/07/19 05:37:12;;;;;;;12.50;6.82;;;16.50;99.90;;;;;;5087845;28;20135;-87
2023/07/19 05:39:38;;;;;;;10.02;6.70;;;16.50;99.90;;;;;;5100542;28;20108;-87
2023/07/19 05:42:05;;;;;;;6.93;6.18;;;16.50;99.90;;;;;;5099387;28;20036;-88
2023/07/19 05:44:31;;;;;;;7.03;6.32;;;16.50;99.90;;;;;;5076011;28;20048;-86
2023/07/19 05:46:57;;;;;;;7.22;6.25;;;16.50;99.90;;;;;;5087584;28;20407;-86
2023/07/19 05:49:22;;;;;;;8.90;6.35;;;16.50;99.90;;;;;;5095479;28;20043;-86
2023/07/19 05:51:48;;;;;;;7.10;5.90;;;17.50;99.90;;;;;;5091103;28;20583;-86
2023/07/19 05:54:15;;;;;;;6.70;5.72;;;16.50;99.90;;;;;;5100634;28;20087;-87
2023/07/19 05:56:41;;;;;;;6.40;5.53;;;17.20;99.90;;;;;;5081761;28;20089;-85
2023/07/19 05:59:06;;;;;;;7.78;5.60;;;16.60;99.90;;;;;;5095043;28;20048;-86
2023/07/19 06:01:32;;;;;;;7.28;5.30;;;17.10;99.90;;;;;;5099264;28;20050;-85
2023/07/19 06:03:57;;;;;;;8.43;5.50;;;16.60;99.90;;;;;;5092430;28;20042;-86
2023/07/19 06:06:25;;;;;;;5.13;4.63;;;16.60;99.90;;;;;;5083351;28;20040;-88
2023/07/19 06:08:50;;;;;;;8.52;5.07;;;16.60;99.90;;;;;;5107287;28;20094;-87
2023/07/19 06:11:16;;;;;;;6.13;4.30;;;16.60;99.90;;;;;;5102579;28;20072;-89
2023/07/19 06:13:42;;;;;;;5.20;4.10;;;17.50;99.90;;;;;;5099571;28;20035;-86
2023/07/19 06:16:07;;;;;;;5.68;4.20;;;16.60;99.90;;;;;;5100525;28;20492;-87
2023/07/19 06:18:33;;;;;;;8.93;4.35;;;16.60;99.90;;;;;;5106421;28;20134;-88
2023/07/19 06:20:59;;;;;;;9.10;4.70;;;16.60;99.90;;;;;;5101534;28;20040;-86
2023/07/19 06:23:24;;;;;;;6.72;4.32;;;16.60;99.90;;;;;;5090790;28;20039;-87
2023/07/19 06:25:50;;;;;;;4.50;4.10;;;17.20;99.90;;;;;;5082813;28;20119;-86
2023/07/19 06:28:15;;;;;;;4.80;4.28;;;16.70;99.90;;;;;;5088007;28;20044;-86
2023/07/19 06:30:42;;;;;;;4.20;3.72;;;16.70;99.90;;;;;;5077915;28;20501;-86
2023/07/19 06:33:07;;;;;;;5.30;4.13;;;16.80;99.90;;;;;;5098780;28;20036;-82
2023/07/19 06:35:33;;;;;;;5.85;4.22;;;16.80;99.90;;;;;;5089358;28;20048;-88
2023/07/19 06:37:59;;;;;;;8.70;4.57;;;16.90;99.90;;;;;;5097367;28;20123;-84
2023/07/19 06:40:26;;;;;;;6.70;4.10;;;16.90;99.90;;;;;;5094032;28;20036;-85
2023/07/19 06:42:55;;;;;;;5.88;3.72;;;17.10;99.90;;;;;;5080623;28;20048;-86
2023/07/19 06:45:21;;;;;;;4.85;3.83;;;17.10;99.90;;;;;;5097862;28;20039;-83
2023/07/19 06:47:46;;;;;;;4.38;3.70;;;17.10;99.90;;;;;;5085495;28;20051;-85
2023/07/19 06:50:12;;;;;;;4.22;3.40;;;17.20;99.90;;;;;;5100501;28;20044;-84
2023/07/19 06:52:38;;;;;;;4.05;3.40;;;17.20;99.90;;;;;;5102596;28;20111;-84
2023/07/19 06:55:04;;;;;;;6.55;3.70;;;17.20;99.90;;;;;;5099802;28;20036;-87
2023/07/19 06:57:30;;;;;;;7.28;3.05;;;17.20;99.90;;;;;;5081306;28;20490;-84
2023/07/19 06:59:57;;;;;;;6.35;2.80;;;17.30;99.90;;;;;;5085714;28;20578;-84
2023/07/19 07:02:23;;;;;;;3.47;2.38;;;18.30;99.90;;;;;;5101453;28;20048;-84
2023/07/19 07:04:50;;;;;;;5.07;2.35;;;17.40;99.90;;;;;;5099687;28;20039;-83
2023/07/19 07:07:18;;;;;;;3.65;2.30;;;18.50;99.90;;;;;;5088517;28;20044;-85
2023/07/19 07:09:44;;;;;;;3.45;2.40;;;17.50;99.90;;;;;;5070010;28;20036;-85
2023/07/19 07:12:10;;;;;;;3.80;2.13;;;17.60;99.90;;;;;;5098310;28;20040;-87
2023/07/19 07:14:39;;;;;;;4.97;2.30;;;17.70;99.90;;;;;;5098051;28;20091;-85
2023/07/19 07:17:06;;;;;;;3.08;2.03;;;18.10;99.90;;;;;;5087093;28;20211;-85
2023/07/19 07:19:32;;;;;;;3.50;2.40;;;18.00;99.90;;;;;;5090887;28;20817;-86
2023/07/19 07:21:58;;;;;;;3.92;1.90;;;18.60;99.90;;;;;;5103424;28;20051;-85
2023/07/19 07:24:24;;;;;;;3.85;1.90;;;18.50;99.90;;;;;;5089896;28;20095;-84
2023/07/19 07:26:50;;;;;;;4.28;2.15;;;18.90;99.90;;;;;;5086482;28;20083;-85
2023/07/19 07:29:15;;;;;;;3.83;2.08;;;19.00;99.90;;;;;;5087387;28;20105;-86
2023/07/19 07:31:41;;;;;;;3.45;1.80;;;18.10;99.90;;;;;;5087962;28;20472;-86
2023/07/19 07:34:08;;;;;;;4.60;1.80;;;18.20;99.90;;;;;;5105325;28;20044;-90
2023/07/19 07:36:34;;;;;;;3.55;1.98;;;18.20;99.90;;;;;;5093261;28;20098;-88
2023/07/19 07:38:59;;;;;;;3.85;2.00;;;19.10;99.90;;;;;;5110519;28;20075;-88
2023/07/19 07:41:25;;;;;;;4.97;2.13;;;18.30;99.90;;;;;;5107033;28;20036;-87
2023/07/19 07:43:51;;;;;;;5.43;2.65;;;19.10;99.90;;;;;;5089500;28;20039;-87
2023/07/19 07:46:16;;;;;;;4.28;2.42;;;19.30;99.90;;;;;;5106994;28;20046;-86
2023/07/19 07:48:42;;;;;;;5.57;2.58;;;19.60;99.90;;;;;;5104447;28;20049;-85
2023/07/19 07:51:08;;;;;;;4.45;2.22;;;18.40;99.90;;;;;;5095796;28;20035;-85
2023/07/19 07:53:36;;;;;;;5.05;2.60;;;19.30;99.90;;;;;;5107167;28;20863;-85
2023/07/19 07:56:02;;;;;;;4.90;2.50;;;18.40;99.90;;;;;;5088804;28;20051;-85
2023/07/19 07:58:28;;;;;;;5.07;2.53;;;18.40;99.90;;;;;;5106685;28;20147;-85
2023/07/19 08:00:54;;;;;;;4.85;2.40;;;18.30;99.90;;;;;;5108163;28;20055;-85
2023/07/19 08:03:19;;;;;;;5.15;2.33;;;18.50;99.90;;;;;;5108410;28;20413;-85
2023/07/19 08:05:45;;;;;;;5.20;2.50;;;19.40;99.90;;;;;;5088969;28;20040;-84
2023/07/19 08:08:11;;;;;;;3.28;2.45;;;18.50;99.90;;;;;;5093299;28;20054;-85
2023/07/19 08:10:40;;;;;;;3.45;2.20;;;19.30;99.90;;;;;;5101125;28;20191;-85
2023/07/19 08:13:10;;;;;;;4.05;2.58;;;18.50;99.90;;;;;;5109713;28;20031;-85
2023/07/19 08:15:36;;;;;;;4.63;2.33;;;18.50;99.90;;;;;;5109113;28;20043;-85
2023/07/19 08:18:01;;;;;;;4.43;2.30;;;18.50;99.90;;;;;;5107747;28;20453;-85
2023/07/19 08:20:27;;;;;;;2.75;1.73;;;18.60;99.90;;;;;;5109495;28;20044;-85
2023/07/19 08:22:53;;;;;;;3.78;1.95;;;18.70;99.90;;;;;;5092675;28;20410;-85
2023/07/19 08:25:19;;;;;;;4.22;1.83;;;18.90;99.90;;;;;;5089153;28;20196;-85
2023/07/19 08:27:45;;;;;;;4.13;1.40;;;18.70;99.90;;;;;;5089470;28;20044;-84
2023/07/19 08:30:18;;;;;;;1.92;1.55;;;18.70;99.90;;;;;;5089054;28;20047;-85
2023/07/19 08:32:47;;;;;;;3.88;1.70;;;18.80;99.90;;;;;;5089580;28;20054;-85
2023/07/19 08:35:14;;;;;;;4.13;2.10;;;19.40;99.90;;;;;;5089709;28;20098;-85
2023/07/19 08:37:43;;;;;;;3.90;2.00;;;19.10;99.90;;;;;;5110536;28;20044;-84
2023/07/19 08:40:11;;;;;;;2.05;1.55;;;19.20;99.90;;;;;;5102087;28;20052;-90
2023/07/19 08:42:37;;;;;;;3.38;1.60;;;19.30;99.90;;;;;;5076933;28;20046;-87
2023/07/19 08:45:08;;;;;;;5.45;1.98;;;20.30;99.90;;;;;;5075162;28;20047;-86
2023/07/19 08:47:35;;;;;;;4.65;1.80;;;19.50;99.90;;;;;;5072377;28;20047;-86
2023/07/19 08:50:04;;;;;;;1.60;1.50;;;19.60;99.90;;;;;;5088920;28;20059;-86
2023/07/19 08:52:31;;;;;;;3.47;1.55;;;20.00;99.90;;;;;;5071684;28;20059;-86
2023/07/19 08:54:57;;;;;;;3.00;1.63;;;19.70;99.90;;;;;;5089006;28;20062;-85
2023/07/19 08:57:22;;;;;;;3.63;1.67;;;19.70;99.90;;;;;;5071424;28;20031;-86
2023/07/19 08:59:48;;;;;;;3.65;1.50;;;19.80;99.90;;;;;;5088337;28;20444;-86
2023/07/19 09:02:14;;;;;;;2.38;1.58;;;19.80;99.90;;;;;;5088639;28;20043;-86
2023/07/19 09:04:39;;;;;;;3.67;1.77;;;19.80;99.90;;;;;;5088197;28;20088;-86
2023/07/19 09:07:05;;;;;;;2.92;1.58;;;20.00;99.90;;;;;;5072037;28;20048;-87
2023/07/19 09:09:31;;;;;;;2.65;1.65;;;19.80;99.90;;;;;;5087809;28;20047;-86
2023/07/19 09:11:57;;;;;;;2.45;1.70;;;20.40;99.90;;;;;;5089209;28;20147;-86
2023/07/19 09:14:38;;;;;;;3.05;1.63;;;19.80;99.90;;;;;;5088544;28;20047;-87
2023/07/19 09:17:06;;;;;;;2.97;1.70;;;19.70;99.90;;;;;;5088639;28;20061;-86
2023/07/19 09:19:36;;;;;;;2.72;1.70;;;19.70;99.90;;;;;;5088000;28;20059;-86
2023/07/19 09:22:03;;;;;;;2.92;1.60;;;20.70;99.90;;;;;;5088601;28;20056;-86
2023/07/19 09:24:29;;;;;;;4.00;1.67;;;19.70;99.90;;;;;;5088089;28;20067;-85
2023/07/19 09:26:59;;;;;;;2.78;1.50;;;19.80;99.90;;;;;;5088397;28;20391;-86
2023/07/19 09:29:30;;;;;;;2.67;1.30;;;19.90;99.90;;;;;;5070923;28;20565;-86
2023/07/19 09:32:00;;;;;;;3.67;1.35;;;20.00;99.90;;;;;;5079475;28;20051;-86
2023/07/19 09:34:36;;;;;;;3.25;1.35;;;20.20;99.90;;;;;;5102315;28;20127;-85
2023/07/19 09:37:02;;;;;;;3.35;1.20;;;20.40;99.90;;;;;;5071947;28;20047;-87
2023/07/19 09:39:29;;;;;;;2.15;1.10;;;20.40;99.90;;;;;;5087380;28;20059;-87
2023/07/19 09:41:57;;;;;;;1.40;0.80;;;20.40;99.90;;;;;;5087857;28;20092;-86
2023/07/19 09:44:23;;;;;;;3.10;1.42;;;21.30;99.90;;;;;;5087744;28;20047;-86
2023/07/19 09:46:59;;;;;;;7.38;2.20;;;20.30;99.90;;;;;;5071415;28;20042;-87
2023/07/19 09:49:24;;;;;;;2.47;1.65;;;20.30;99.90;;;;;;5086658;28;20048;-86
2023/07/19 09:51:51;;;;;;;3.08;1.20;;;20.30;99.90;;;;;;5086923;28;20442;-85
2023/07/19 09:54:19;;;;;;;1.77;1.30;;;20.30;99.90;;;;;;5087859;28;20456;-85
2023/07/19 09:56:44;;;;;;;3.53;1.50;;;20.30;99.90;;;;;;5088682;28;20040;-85
2023/07/19 09:59:17;;;;;;;3.42;1.58;;;20.30;99.90;;;;;;5087567;28;20131;-86
2023/07/19 10:01:43;;;;;;;2.83;1.50;;;20.30;99.90;;;;;;5070755;28;20160;-85
2023/07/19 10:04:42;;;;;;;4.45;1.60;;;20.50;99.90;;;;;;5088045;28;20051;-86
2023/07/19 10:07:14;;;;;;;3.35;1.77;;;20.80;99.90;;;;;;5070930;28;20470;-85
2023/07/19 10:09:45;;;;;;;2.15;1.55;;;21.20;99.90;;;;;;5070114;28;20044;-84
2023/07/19 10:12:23;;;;;;;2.78;1.52;;;21.60;99.90;;;;;;5088393;28;20040;-86
2023/07/19 10:14:52;;;;;;;3.63;1.67;;;22.00;99.90;;;;;;5088523;28;20052;-86
2023/07/19 10:17:18;;;;;;;4.20;1.52;;;21.70;99.90;;;;;;5070244;28;20040;-85
2023/07/19 10:20:04;;;;;;;2.10;1.48;;;21.70;99.90;;;;;;5101475;28;20058;-87
2023/07/19 10:22:56;;;;;;;3.63;1.50;;;22.40;99.90;;;;;;5087432;28;20489;-84
2023/07/19 10:25:51;;;;;;;1.77;1.30;;;21.70;99.90;;;;;;5070011;28;20036;-86
2023/07/19 10:28:29;;;;;;;3.05;1.20;;;21.60;99.90;;;;;;5087004;28;20413;-85
2023/07/19 10:31:07;;;;;;;3.10;1.40;;;21.60;99.90;;;;;;5070501;28;20044;-84
2023/07/19 10:33:34;;;;;;;2.35;1.27;;;21.30;99.90;;;;;;5087256;28;20719;-85
2023/07/19 10:36:08;;;;;;;1.67;1.30;;;21.20;99.90;;;;;;5072037;28;20048;-86
2023/07/19 10:38:34;;;;;;;2.10;1.33;;;21.20;99.90;;;;;;5090681;28;20036;-86
2023/07/19 10:41:07;;;;;;;2.22;1.17;;;21.10;99.90;;;;;;5096979;28;20077;-83
2023/07/19 10:43:37;;;;;;;2.35;1.38;;;20.90;99.90;;;;;;5087211;28;20044;-83
2023/07/19 10:46:05;;;;;;;2.05;1.30;;;21.00;99.90;;;;;;5072818;28;20083;-83
2023/07/19 10:48:36;;;;;;;2.80;1.35;;;20.50;99.90;;;;;;5101750;28;20112;-84
2023/07/19 10:51:07;;;;;;;3.55;1.48;;;21.10;99.90;;;;;;5103654;28;20456;-83
2023/07/19 10:53:48;;;;;;;1.92;1.35;;;20.30;99.90;;;;;;5086937;28;20058;-84
2023/07/19 10:56:15;;;;;;;2.67;1.30;;;20.40;99.90;;;;;;5086759;28;20071;-86
2023/07/19 10:58:42;;;;;;;2.50;1.40;;;20.00;99.90;;;;;;5103955;27;20047;-86
2023/07/19 11:01:08;;;;;;;2.58;1.50;;;20.50;99.90;;;;;;5091991;28;20667;-85
2023/07/19 11:03:34;;;;;;;4.25;1.83;;;19.60;99.90;;;;;;5075006;28;20051;-85
2023/07/19 11:06:00;;;;;;;2.15;1.38;;;19.50;99.90;;;;;;5071447;28;20527;-88
2023/07/19 11:08:28;;;;;;;2.95;1.60;;;19.30;99.90;;;;;;5087626;28;20044;-88
2023/07/19 11:10:56;;;;;;;2.28;1.48;;;19.70;99.90;;;;;;5072287;28;20512;-89
2023/07/19 11:13:26;;;;;;;1.70;1.20;;;19.10;99.90;;;;;;5087521;28;20051;-87
2023/07/19 11:15:53;;;;;;;1.85;1.10;;;19.10;99.90;;;;;;5070695;28;20770;-86
2023/07/19 11:18:34;;;;;;;2.92;1.15;;;18.90;99.90;;;;;;5086474;28;20097;-87
2023/07/19 11:21:00;;;;;;;1.48;1.10;;;18.70;99.90;;;;;;5070380;28;20059;-88
2023/07/19 11:23:27;;;;;;;2.20;1.40;;;18.90;99.90;;;;;;5069036;28;20101;-86
2023/07/19 11:26:22;;;;;;;2.75;1.50;;;18.60;99.90;;;;;;5069539;28;20115;-86
2023/07/19 11:28:57;;;;;;;2.97;1.73;;;18.70;99.90;;;;;;5061257;28;20056;-86
2023/07/19 11:31:32;;;;;;;1.98;1.60;;;18.70;99.90;;;;;;5088167;28;20086;-86
2023/07/19 11:34:13;;;;;;;3.78;1.63;;;18.80;99.90;;;;;;5072807;28;20044;-86
2023/07/19 11:36:43;;;;;;;3.25;1.90;;;18.60;99.90;;;;;;5092525;28;20047;-85
2023/07/19 11:39:23;;;;;;;3.63;1.83;;;19.10;99.90;;;;;;5093481;28;20040;-86
2023/07/19 11:41:49;;;;;;;2.70;1.80;;;19.30;99.90;;;;;;5094281;28;20418;-85
2023/07/19 11:44:16;;;;;;;3.35;1.90;;;19.40;99.90;;;;;;5082767;28;20075;-86
2023/07/19 11:46:42;;;;;;;3.72;1.90;;;20.10;99.90;;;;;;5090102;28;20443;-85
2023/07/19 11:49:10;;;;;;;3.00;1.90;;;20.30;99.90;;;;;;5090196;28;20108;-86
2023/07/19 11:51:39;;;;;;;3.50;2.05;;;19.90;99.90;;;;;;5091539;28;20060;-82
2023/07/19 11:54:05;;;;;;;3.17;2.00;;;19.90;99.90;;;;;;5106183;28;20086;-83
2023/07/19 11:56:31;;;;;;;3.10;1.77;;;19.90;99.90;;;;;;5110507;28;20579;-83
2023/07/19 11:58:57;;;;;;;3.42;2.45;;;20.40;99.90;;;;;;5111709;27;20084;-82
2023/07/19 12:01:24;;;;;;;4.78;2.63;;;20.00;99.90;;;;;;5111485;28;20126;-83
2023/07/19 12:03:49;;;;;;;4.95;2.83;;;20.30;99.90;;;;;;5111456;28;20043;-83
2023/07/19 12:06:15;;;;;;;3.40;2.33;;;20.00;99.90;;;;;;5108157;28;20051;-81
2023/07/19 12:08:41;;;;;;;5.50;2.97;;;20.70;99.90;;;;;;5096884;28;20055;-84
2023/07/19 12:11:08;;;;;;;4.47;2.70;;;20.80;99.90;;;;;;5090527;28;20779;-83
2023/07/19 12:13:35;;;;;;;3.15;2.70;;;20.00;99.90;;;;;;5072826;28;20044;-83
2023/07/19 12:16:00;;;;;;;4.25;2.72;;;20.90;99.90;;;;;;5089432;28;20047;-85
2023/07/19 12:18:26;;;;;;;5.60;3.00;;;20.10;99.90;;;;;;5089510;28;20048;-84
2023/07/19 12:20:52;;;;;;;4.80;3.00;;;20.20;99.90;;;;;;5088606;28;20760;-85
2023/07/19 12:23:18;;;;;;;3.83;2.85;;;20.30;99.90;;;;;;5085250;28;20043;-84
2023/07/19 12:25:43;;;;;;;3.53;2.97;;;20.20;99.90;;;;;;5091098;28;20044;-83
2023/07/19 12:28:09;;;;;;;6.13;3.20;;;20.20;99.90;;;;;;5078159;28;20036;-83
2023/07/19 12:30:35;;;;;;;5.15;3.10;;;20.20;99.90;;;;;;5091578;28;20580;-82
2023/07/19 12:33:01;;;;;;;5.82;3.20;;;20.20;99.90;;;;;;5085202;28;20158;-84
2023/07/19 12:35:26;;;;;;;3.47;2.85;;;20.10;99.90;;;;;;5088190;28;20130;-83
2023/07/19 12:37:52;;;;;;;5.97;2.97;;;20.30;99.90;;;;;;5088569;28;20052;-82
2023/07/19 12:40:18;;;;;;;5.32;2.55;;;20.50;99.90;;;;;;5088577;28;20048;-85
2023/07/19 12:42:43;;;;;;;4.00;2.42;;;20.50;99.90;;;;;;5072536;28;20040;-83
2023/07/19 12:45:09;;;;;;;2.38;1.90;;;21.10;99.90;;;;;;5072180;28;21928;-83